sensor_id;sensor_type;location;lat;lon;timestamp;pressure;altitude;pressure_sealevel;temperature;humidity
78121;BME280;67585;44.802;10.332;2023-12-28T00:02:12;102224.53;;;9.86;82.21
78121;BME280;67585;44.802;10.332;2023-12-28T00:04:38;102227.59;;;9.89;81.52
78121;BME280;67585;44.802;10.332;2023-12-28T00:07:04;102212.75;;;9.73;82.43
78121;BME280;67585;44.802;10.332;2023-12-28T00:09:29;102222.19;;;9.96;82.46
78121;BME280;67585;44.802;10.332;2023-12-28T00:11:55;102207.75;;;9.83;81.46
78121;BME280;67585;44.802;10.332;2023-12-28T00:14:20;102224.75;;;9.77;81.59
78121;BME280;67585;44.802;10.332;2023-12-28T00:16:46;102227.88;;;9.81;82.84
78121;BME280;67585;44.802;10.332;2023-12-28T00:19:11;102229.69;;;9.80;82.29
78121;BME280;67585;44.802;10.332;2023-12-28T00:21:37;102217.84;;;9.95;82.51
78121;BME280;67585;44.802;10.332;2023-12-28T00:24:03;102225.69;;;10.03;81.85
78121;BME280;67585;44.802;10.332;2023-12-28T00:26:28;102201.41;;;9.71;81.33
78121;BME280;67585;44.802;10.332;2023-12-28T00:28:54;102213.16;;;9.77;81.91
78121;BME280;67585;44.802;10.332;2023-12-28T00:31:19;102205.94;;;9.71;81.67
78121;BME280;67585;44.802;10.332;2023-12-28T00:33:45;102162.81;;;9.46;82.25
78121;BME280;67585;44.802;10.332;2023-12-28T00:36:10;102190.00;;;9.76;81.14
78121;BME280;67585;44.802;10.332;2023-12-28T00:38:36;102226.00;;;9.81;81.68
78121;BME280;67585;44.802;10.332;2023-12-28T00:41:01;102197.28;;;9.69;81.54
78121;BME280;67585;44.802;10.332;2023-12-28T00:43:26;102185.03;;;9.73;81.38
78121;BME280;67585;44.802;10.332;2023-12-28T00:45:52;102218.72;;;9.89;81.15
78121;BME280;67585;44.802;10.332;2023-12-28T00:48:17;102204.91;;;9.72;81.80
78121;BME280;67585;44.802;10.332;2023-12-28T00:50:43;102227.44;;;9.84;81.40
78121;BME280;67585;44.802;10.332;2023-12-28T00:53:08;102226.75;;;9.95;80.96
78121;BME280;67585;44.802;10.332;2023-12-28T00:55:33;102216.56;;;10.04;81.05
78121;BME280;67585;44.802;10.332;2023-12-28T00:57:59;102221.75;;;9.99;80.40
78121;BME280;67585;44.802;10.332;2023-12-28T01:00:24;102218.88;;;9.94;80.67
78121;BME280;67585;44.802;10.332;2023-12-28T01:02:50;102207.06;;;9.95;81.26
78121;BME280;67585;44.802;10.332;2023-12-28T01:05:16;102200.88;;;9.94;80.43
78121;BME280;67585;44.802;10.332;2023-12-28T01:07:42;102215.47;;;10.12;80.44
78121;BME280;67585;44.802;10.332;2023-12-28T01:10:07;102213.06;;;9.97;80.42
78121;BME280;67585;44.802;10.332;2023-12-28T01:12:33;102210.38;;;9.97;80.26
78121;BME280;67585;44.802;10.332;2023-12-28T01:14:58;102206.28;;;9.88;80.34
78121;BME280;67585;44.802;10.332;2023-12-28T01:17:24;102209.59;;;9.90;80.48
78121;BME280;67585;44.802;10.332;2023-12-28T01:19:49;102209.56;;;9.96;80.51
78121;BME280;67585;44.802;10.332;2023-12-28T01:22:15;102199.22;;;9.93;80.16
78121;BME280;67585;44.802;10.332;2023-12-28T01:24:40;102184.97;;;9.86;79.75
78121;BME280;67585;44.802;10.332;2023-12-28T01:27:06;102218.81;;;10.07;80.29
78121;BME280;67585;44.802;10.332;2023-12-28T01:29:31;102220.13;;;9.98;79.86
78121;BME280;67585;44.802;10.332;2023-12-28T01:31:58;102188.94;;;9.83;80.05
78121;BME280;67585;44.802;10.332;2023-12-28T01:34:23;102223.00;;;10.03;80.76
78121;BME280;67585;44.802;10.332;2023-12-28T01:36:48;102221.31;;;10.02;80.84
78121;BME280;67585;44.802;10.332;2023-12-28T01:39:14;102204.00;;;9.91;81.15
78121;BME280;67585;44.802;10.332;2023-12-28T01:41:41;102231.72;;;9.92;81.45
78121;BME280;67585;44.802;10.332;2023-12-28T01:44:06;102220.34;;;9.90;81.67
78121;BME280;67585;44.802;10.332;2023-12-28T01:46:32;102173.44;;;9.72;81.83
78121;BME280;67585;44.802;10.332;2023-12-28T01:48:57;102195.16;;;9.77;80.90
78121;BME280;67585;44.802;10.332;2023-12-28T01:51:24;102219.53;;;9.89;81.50
78121;BME280;67585;44.802;10.332;2023-12-28T01:53:51;102187.56;;;9.61;81.28
78121;BME280;67585;44.802;10.332;2023-12-28T01:56:18;102228.88;;;9.80;80.85
78121;BME280;67585;44.802;10.332;2023-12-28T01:58:46;102224.56;;;9.79;81.34
78121;BME280;67585;44.802;10.332;2023-12-28T02:01:13;102228.50;;;9.76;81.36
78121;BME280;67585;44.802;10.332;2023-12-28T02:03:38;102223.53;;;9.73;81.11
78121;BME280;67585;44.802;10.332;2023-12-28T02:06:06;102230.13;;;9.77;82.15
78121;BME280;67585;44.802;10.332;2023-12-28T02:08:32;102215.69;;;9.65;82.56
78121;BME280;67585;44.802;10.332;2023-12-28T02:10:58;102222.31;;;9.69;81.84
78121;BME280;67585;44.802;10.332;2023-12-28T02:13:24;102217.59;;;9.51;82.23
78121;BME280;67585;44.802;10.332;2023-12-28T02:16:10;102199.56;;;9.58;82.69
78121;BME280;67585;44.802;10.332;2023-12-28T02:18:41;102227.28;;;9.66;82.84
78121;BME280;67585;44.802;10.332;2023-12-28T02:21:08;102221.88;;;9.79;81.89
78121;BME280;67585;44.802;10.332;2023-12-28T02:23:33;102206.19;;;9.62;81.92
78121;BME280;67585;44.802;10.332;2023-12-28T02:25:59;102199.56;;;9.65;81.76
78121;BME280;67585;44.802;10.332;2023-12-28T02:28:24;102205.41;;;9.49;82.74
78121;BME280;67585;44.802;10.332;2023-12-28T02:30:50;102206.00;;;9.57;82.44
78121;BME280;67585;44.802;10.332;2023-12-28T02:33:24;102213.91;;;9.52;82.72
78121;BME280;67585;44.802;10.332;2023-12-28T02:35:55;102201.91;;;9.41;82.81
78121;BME280;67585;44.802;10.332;2023-12-28T02:38:24;102205.81;;;9.52;82.88
78121;BME280;67585;44.802;10.332;2023-12-28T02:40:50;102209.31;;;9.66;82.30
78121;BME280;67585;44.802;10.332;2023-12-28T02:43:16;102193.38;;;9.58;83.05
78121;BME280;67585;44.802;10.332;2023-12-28T02:45:41;102188.06;;;9.45;82.86
78121;BME280;67585;44.802;10.332;2023-12-28T02:48:07;102197.31;;;9.55;82.60
78121;BME280;67585;44.802;10.332;2023-12-28T02:50:33;102162.00;;;9.38;82.86
78121;BME280;67585;44.802;10.332;2023-12-28T02:52:59;102203.06;;;9.66;82.90
78121;BME280;67585;44.802;10.332;2023-12-28T02:55:25;102196.69;;;9.60;83.09
78121;BME280;67585;44.802;10.332;2023-12-28T02:57:51;102198.75;;;9.65;82.96
78121;BME280;67585;44.802;10.332;2023-12-28T03:00:17;102172.09;;;9.56;82.16
78121;BME280;67585;44.802;10.332;2023-12-28T03:02:42;102196.44;;;9.68;81.95
78121;BME280;67585;44.802;10.332;2023-12-28T03:05:08;102158.63;;;9.56;82.00
78121;BME280;67585;44.802;10.332;2023-12-28T03:07:34;102151.22;;;9.52;82.09
78121;BME280;67585;44.802;10.332;2023-12-28T03:10:00;102172.53;;;9.47;82.94
78121;BME280;67585;44.802;10.332;2023-12-28T03:12:27;102179.69;;;9.66;83.07
78121;BME280;67585;44.802;10.332;2023-12-28T03:14:53;102177.25;;;9.58;83.27
78121;BME280;67585;44.802;10.332;2023-12-28T03:17:18;102179.28;;;9.62;82.27
78121;BME280;67585;44.802;10.332;2023-12-28T03:19:44;102160.31;;;9.44;82.73
78121;BME280;67585;44.802;10.332;2023-12-28T03:22:09;102134.75;;;9.28;82.88
78121;BME280;67585;44.802;10.332;2023-12-28T03:24:37;102174.56;;;9.51;83.03
78121;BME280;67585;44.802;10.332;2023-12-28T03:27:04;102157.88;;;9.43;83.50
78121;BME280;67585;44.802;10.332;2023-12-28T03:29:29;102154.09;;;9.50;83.13
78121;BME280;67585;44.802;10.332;2023-12-28T03:31:54;102130.16;;;9.42;82.60
78121;BME280;67585;44.802;10.332;2023-12-28T03:34:20;102149.16;;;9.47;83.78
78121;BME280;67585;44.802;10.332;2023-12-28T03:36:45;102155.50;;;9.66;82.58
78121;BME280;67585;44.802;10.332;2023-12-28T03:39:10;102155.09;;;9.56;83.12
78121;BME280;67585;44.802;10.332;2023-12-28T03:41:36;102115.66;;;9.36;82.56
78121;BME280;67585;44.802;10.332;2023-12-28T03:44:01;102150.34;;;9.58;83.33
78121;BME280;67585;44.802;10.332;2023-12-28T03:46:27;102145.78;;;9.58;83.32
78121;BME280;67585;44.802;10.332;2023-12-28T03:48:53;102149.34;;;9.52;83.76
78121;BME280;67585;44.802;10.332;2023-12-28T03:51:18;102145.41;;;9.48;83.59
78121;BME280;67585;44.802;10.332;2023-12-28T03:53:44;102131.13;;;9.54;83.74
78121;BME280;67585;44.802;10.332;2023-12-28T03:56:22;102143.09;;;9.58;83.93
78121;BME280;67585;44.802;10.332;2023-12-28T03:58:48;102123.72;;;9.43;83.11
78121;BME280;67585;44.802;10.332;2023-12-28T04:01:14;102139.13;;;9.61;83.44
78121;BME280;67585;44.802;10.332;2023-12-28T04:03:39;102145.03;;;9.45;83.57
78121;BME280;67585;44.802;10.332;2023-12-28T04:06:05;102131.94;;;9.55;83.08
78121;BME280;67585;44.802;10.332;2023-12-28T04:08:30;102147.72;;;9.45;83.71
78121;BME280;67585;44.802;10.332;2023-12-28T04:10:56;102113.81;;;9.37;83.68
78121;BME280;67585;44.802;10.332;2023-12-28T04:13:21;102139.84;;;9.50;83.74
78121;BME280;67585;44.802;10.332;2023-12-28T04:15:47;102120.84;;;9.38;83.10
78121;BME280;67585;44.802;10.332;2023-12-28T04:18:12;102116.28;;;9.38;83.50
78121;BME280;67585;44.802;10.332;2023-12-28T04:20:38;102142.44;;;9.63;83.21
78121;BME280;67585;44.802;10.332;2023-12-28T04:23:03;102138.97;;;9.56;83.05
78121;BME280;67585;44.802;10.332;2023-12-28T04:25:28;102108.03;;;9.33;83.55
78121;BME280;67585;44.802;10.332;2023-12-28T04:27:54;102149.09;;;9.54;83.16
78121;BME280;67585;44.802;10.332;2023-12-28T04:30:19;102156.53;;;9.58;83.55
78121;BME280;67585;44.802;10.332;2023-12-28T04:32:44;102160.63;;;9.68;83.48
78121;BME280;67585;44.802;10.332;2023-12-28T04:35:10;102134.66;;;9.48;82.81
78121;BME280;67585;44.802;10.332;2023-12-28T04:37:35;102148.28;;;9.53;83.08
78121;BME280;67585;44.802;10.332;2023-12-28T04:40:02;102129.34;;;9.35;82.87
78121;BME280;67585;44.802;10.332;2023-12-28T04:42:28;102118.59;;;9.35;82.96
78121;BME280;67585;44.802;10.332;2023-12-28T04:44:54;102155.19;;;9.36;83.33
78121;BME280;67585;44.802;10.332;2023-12-28T04:47:19;102166.81;;;9.30;83.94
78121;BME280;67585;44.802;10.332;2023-12-28T04:49:45;102163.84;;;9.45;84.29
78121;BME280;67585;44.802;10.332;2023-12-28T04:52:10;102167.84;;;9.22;83.59
78121;BME280;67585;44.802;10.332;2023-12-28T04:54:35;102169.00;;;9.46;84.32
78121;BME280;67585;44.802;10.332;2023-12-28T04:57:01;102157.25;;;9.40;84.02
78121;BME280;67585;44.802;10.332;2023-12-28T04:59:26;102165.28;;;9.47;83.93
78121;BME280;67585;44.802;10.332;2023-12-28T05:01:52;102170.44;;;9.49;84.01
78121;BME280;67585;44.802;10.332;2023-12-28T05:04:17;102171.47;;;9.54;83.26
78121;BME280;67585;44.802;10.332;2023-12-28T05:06:43;102178.50;;;9.49;83.19
78121;BME280;67585;44.802;10.332;2023-12-28T05:09:08;102171.28;;;9.49;83.60
78121;BME280;67585;44.802;10.332;2023-12-28T05:11:33;102171.06;;;9.44;83.66
78121;BME280;67585;44.802;10.332;2023-12-28T05:13:59;102165.06;;;9.49;84.14
78121;BME280;67585;44.802;10.332;2023-12-28T05:16:24;102138.06;;;9.24;83.51
78121;BME280;67585;44.802;10.332;2023-12-28T05:18:50;102169.84;;;9.47;83.90
78121;BME280;67585;44.802;10.332;2023-12-28T05:21:15;102140.94;;;9.35;84.04
78121;BME280;67585;44.802;10.332;2023-12-28T05:23:40;102142.97;;;9.40;83.02
78121;BME280;67585;44.802;10.332;2023-12-28T05:26:06;102134.28;;;9.45;83.33
78121;BME280;67585;44.802;10.332;2023-12-28T05:28:32;102170.59;;;9.60;83.87
78121;BME280;67585;44.802;10.332;2023-12-28T05:30:58;102161.72;;;9.53;83.20
78121;BME280;67585;44.802;10.332;2023-12-28T05:33:26;102144.78;;;9.46;83.07
78121;BME280;67585;44.802;10.332;2023-12-28T05:35:52;102173.28;;;9.67;83.07
78121;BME280;67585;44.802;10.332;2023-12-28T05:38:17;102168.34;;;9.57;83.18
78121;BME280;67585;44.802;10.332;2023-12-28T05:40:43;102168.34;;;9.57;83.19
78121;BME280;67585;44.802;10.332;2023-12-28T05:43:10;102156.16;;;9.48;84.37
78121;BME280;67585;44.802;10.332;2023-12-28T05:45:35;102146.19;;;9.62;83.95
78121;BME280;67585;44.802;10.332;2023-12-28T05:48:01;102140.81;;;9.62;83.15
78121;BME280;67585;44.802;10.332;2023-12-28T05:50:26;102154.59;;;9.79;83.36
78121;BME280;67585;44.802;10.332;2023-12-28T05:52:51;102148.41;;;9.72;83.25
78121;BME280;67585;44.802;10.332;2023-12-28T05:55:17;102152.75;;;9.73;83.65
78121;BME280;67585;44.802;10.332;2023-12-28T05:57:42;102143.72;;;9.54;83.44
78121;BME280;67585;44.802;10.332;2023-12-28T06:00:08;102164.59;;;9.58;83.48
78121;BME280;67585;44.802;10.332;2023-12-28T06:02:34;102151.22;;;9.52;84.05
78121;BME280;67585;44.802;10.332;2023-12-28T06:05:00;102157.50;;;9.71;83.45
78121;BME280;67585;44.802;10.332;2023-12-28T06:07:26;102152.72;;;9.79;83.17
78121;BME280;67585;44.802;10.332;2023-12-28T06:09:51;102155.59;;;9.78;83.39
78121;BME280;67585;44.802;10.332;2023-12-28T06:12:17;102160.78;;;9.79;82.82
78121;BME280;67585;44.802;10.332;2023-12-28T06:14:42;102138.75;;;9.57;82.89
78121;BME280;67585;44.802;10.332;2023-12-28T06:17:07;102151.56;;;9.62;83.38
78121;BME280;67585;44.802;10.332;2023-12-28T06:19:33;102152.22;;;9.57;82.96
78121;BME280;67585;44.802;10.332;2023-12-28T06:21:58;102152.41;;;9.56;84.04
78121;BME280;67585;44.802;10.332;2023-12-28T06:24:24;102162.50;;;9.67;84.19
78121;BME280;67585;44.802;10.332;2023-12-28T06:26:49;102176.16;;;9.66;83.46
78121;BME280;67585;44.802;10.332;2023-12-28T06:29:16;102161.97;;;9.52;83.57
78121;BME280;67585;44.802;10.332;2023-12-28T06:31:41;102191.50;;;9.65;83.14
78121;BME280;67585;44.802;10.332;2023-12-28T06:34:07;102199.22;;;9.41;84.01
78121;BME280;67585;44.802;10.332;2023-12-28T06:36:33;102197.22;;;9.17;84.27
78121;BME280;67585;44.802;10.332;2023-12-28T06:38:59;102200.38;;;8.94;84.94
78121;BME280;67585;44.802;10.332;2023-12-28T06:41:25;102184.25;;;8.94;84.82
78121;BME280;67585;44.802;10.332;2023-12-28T06:43:51;102212.16;;;9.13;84.77
78121;BME280;67585;44.802;10.332;2023-12-28T06:46:17;102199.91;;;9.17;84.90
78121;BME280;67585;44.802;10.332;2023-12-28T06:48:43;102218.53;;;9.18;84.56
78121;BME280;67585;44.802;10.332;2023-12-28T06:51:18;102218.31;;;9.27;84.80
78121;BME280;67585;44.802;10.332;2023-12-28T06:53:44;102175.16;;;9.02;84.59
78121;BME280;67585;44.802;10.332;2023-12-28T06:56:10;102207.34;;;9.22;84.49
78121;BME280;67585;44.802;10.332;2023-12-28T06:58:35;102212.34;;;9.11;84.73
78121;BME280;67585;44.802;10.332;2023-12-28T07:01:05;102195.84;;;8.94;84.39
78121;BME280;67585;44.802;10.332;2023-12-28T07:03:32;102206.16;;;8.97;84.58
78121;BME280;67585;44.802;10.332;2023-12-28T07:06:01;102195.22;;;8.92;84.86
78121;BME280;67585;44.802;10.332;2023-12-28T07:08:27;102198.31;;;8.96;84.66
78121;BME280;67585;44.802;10.332;2023-12-28T07:10:53;102224.97;;;9.11;84.73
78121;BME280;67585;44.802;10.332;2023-12-28T07:13:18;102233.22;;;9.16;84.18
78121;BME280;67585;44.802;10.332;2023-12-28T07:15:44;102231.13;;;9.25;85.09
78121;BME280;67585;44.802;10.332;2023-12-28T07:18:09;102202.63;;;9.10;84.60
78121;BME280;67585;44.802;10.332;2023-12-28T07:20:35;102224.91;;;9.31;85.25
78121;BME280;67585;44.802;10.332;2023-12-28T07:23:00;102220.59;;;9.30;84.27
78121;BME280;67585;44.802;10.332;2023-12-28T07:25:25;102222.44;;;9.29;84.97
78121;BME280;67585;44.802;10.332;2023-12-28T07:27:51;102216.03;;;9.37;84.96
78121;BME280;67585;44.802;10.332;2023-12-28T07:30:16;102230.91;;;9.39;84.68
78121;BME280;67585;44.802;10.332;2023-12-28T07:32:43;102206.97;;;9.18;84.68
78121;BME280;67585;44.802;10.332;2023-12-28T07:35:08;102234.00;;;9.43;85.83
78121;BME280;67585;44.802;10.332;2023-12-28T07:37:34;102209.75;;;9.50;84.87
78121;BME280;67585;44.802;10.332;2023-12-28T07:40:00;102226.13;;;9.41;85.10
78121;BME280;67585;44.802;10.332;2023-12-28T07:42:25;102232.56;;;9.40;85.03
78121;BME280;67585;44.802;10.332;2023-12-28T07:44:51;102218.66;;;9.57;85.44
78121;BME280;67585;44.802;10.332;2023-12-28T07:47:16;102223.84;;;9.52;85.11
78121;BME280;67585;44.802;10.332;2023-12-28T07:49:42;102234.72;;;9.70;85.04
78121;BME280;67585;44.802;10.332;2023-12-28T07:52:07;102229.91;;;9.86;84.20
78121;BME280;67585;44.802;10.332;2023-12-28T07:54:32;102212.91;;;9.85;84.30
78121;BME280;67585;44.802;10.332;2023-12-28T07:56:59;102242.31;;;9.87;84.24
78121;BME280;67585;44.802;10.332;2023-12-28T07:59:24;102246.44;;;9.96;83.61
78121;BME280;67585;44.802;10.332;2023-12-28T08:01:50;102221.78;;;9.92;84.20
78121;BME280;67585;44.802;10.332;2023-12-28T08:04:15;102197.78;;;9.91;83.81
78121;BME280;67585;44.802;10.332;2023-12-28T08:06:41;102212.13;;;10.16;82.97
78121;BME280;67585;44.802;10.332;2023-12-28T08:09:06;102223.00;;;10.03;82.17
78121;BME280;67585;44.802;10.332;2023-12-28T08:11:32;102232.41;;;10.19;82.20
78121;BME280;67585;44.802;10.332;2023-12-28T08:13:57;102228.41;;;10.35;82.36
78121;BME280;67585;44.802;10.332;2023-12-28T08:16:23;102225.72;;;10.35;81.90
78121;BME280;67585;44.802;10.332;2023-12-28T08:18:48;102231.13;;;10.35;81.87
78121;BME280;67585;44.802;10.332;2023-12-28T08:21:13;102194.78;;;10.12;80.83
78121;BME280;67585;44.802;10.332;2023-12-28T08:23:39;102214.47;;;10.44;81.31
78121;BME280;67585;44.802;10.332;2023-12-28T08:26:05;102239.00;;;10.86;80.07
78121;BME280;67585;44.802;10.332;2023-12-28T08:28:31;102240.38;;;10.96;79.72
78121;BME280;67585;44.802;10.332;2023-12-28T08:30:56;102222.53;;;11.20;79.01
78121;BME280;67585;44.802;10.332;2023-12-28T08:33:22;102209.03;;;11.57;76.88
78121;BME280;67585;44.802;10.332;2023-12-28T08:35:48;102228.97;;;11.92;75.84
78121;BME280;67585;44.802;10.332;2023-12-28T08:38:13;102221.09;;;11.72;75.13
78121;BME280;67585;44.802;10.332;2023-12-28T08:40:39;102233.16;;;11.88;74.58
78121;BME280;67585;44.802;10.332;2023-12-28T08:43:04;102215.69;;;12.21;74.29
78121;BME280;67585;44.802;10.332;2023-12-28T08:45:30;102235.28;;;12.70;72.82
78121;BME280;67585;44.802;10.332;2023-12-28T08:47:55;102228.00;;;12.71;71.82
78121;BME280;67585;44.802;10.332;2023-12-28T08:50:21;102224.59;;;12.64;71.84
78121;BME280;67585;44.802;10.332;2023-12-28T08:52:47;102237.53;;;12.73;70.89
78121;BME280;67585;44.802;10.332;2023-12-28T08:55:12;102219.16;;;12.52;71.99
78121;BME280;67585;44.802;10.332;2023-12-28T08:57:38;102237.78;;;12.83;70.73
78121;BME280;67585;44.802;10.332;2023-12-28T09:00:10;102236.97;;;13.18;69.84
78121;BME280;67585;44.802;10.332;2023-12-28T09:02:35;102255.06;;;13.18;69.45
78121;BME280;67585;44.802;10.332;2023-12-28T09:05:01;102238.97;;;12.88;69.88
78121;BME280;67585;44.802;10.332;2023-12-28T09:07:26;102223.91;;;13.03;69.94
78121;BME280;67585;44.802;10.332;2023-12-28T09:09:52;102246.38;;;13.28;70.62
78121;BME280;67585;44.802;10.332;2023-12-28T09:12:17;102250.84;;;13.57;69.72
78121;BME280;67585;44.802;10.332;2023-12-28T09:14:43;102230.72;;;13.41;69.39
78121;BME280;67585;44.802;10.332;2023-12-28T09:17:08;102261.06;;;13.55;69.09
78121;BME280;67585;44.802;10.332;2023-12-28T09:19:34;102228.38;;;13.45;68.65
78121;BME280;67585;44.802;10.332;2023-12-28T09:21:59;102234.25;;;13.42;68.67
78121;BME280;67585;44.802;10.332;2023-12-28T09:24:25;102252.84;;;13.50;69.20
78121;BME280;67585;44.802;10.332;2023-12-28T09:26:50;102253.72;;;13.79;67.27
78121;BME280;67585;44.802;10.332;2023-12-28T09:29:15;102226.25;;;13.12;68.50
78121;BME280;67585;44.802;10.332;2023-12-28T09:31:41;102246.03;;;13.36;68.75
78121;BME280;67585;44.802;10.332;2023-12-28T09:34:06;102257.28;;;13.56;68.54
78121;BME280;67585;44.802;10.332;2023-12-28T09:36:32;102257.31;;;13.44;69.06
78121;BME280;67585;44.802;10.332;2023-12-28T09:38:57;102227.88;;;13.60;68.50
78121;BME280;67585;44.802;10.332;2023-12-28T09:41:26;102250.44;;;13.65;68.35
78121;BME280;67585;44.802;10.332;2023-12-28T09:44:11;102231.25;;;13.67;68.84
78121;BME280;67585;44.802;10.332;2023-12-28T09:46:37;102224.78;;;13.68;67.87
78121;BME280;67585;44.802;10.332;2023-12-28T09:49:04;102250.19;;;13.79;68.49
78121;BME280;67585;44.802;10.332;2023-12-28T09:51:29;102246.81;;;13.60;67.99
78121;BME280;67585;44.802;10.332;2023-12-28T09:53:56;102253.88;;;13.61;68.38
78121;BME280;67585;44.802;10.332;2023-12-28T09:56:22;102255.56;;;13.50;68.59
78121;BME280;67585;44.802;10.332;2023-12-28T09:58:49;102246.38;;;13.92;67.13
78121;BME280;67585;44.802;10.332;2023-12-28T10:01:17;102247.06;;;13.99;67.66
78121;BME280;67585;44.802;10.332;2023-12-28T10:03:42;102237.28;;;14.43;66.09
78121;BME280;67585;44.802;10.332;2023-12-28T10:06:08;102243.75;;;14.25;66.13
78121;BME280;67585;44.802;10.332;2023-12-28T10:08:33;102251.22;;;14.18;66.43
78121;BME280;67585;44.802;10.332;2023-12-28T10:10:58;102223.72;;;14.26;66.18
78121;BME280;67585;44.802;10.332;2023-12-28T10:13:26;102236.25;;;14.16;66.67
78121;BME280;67585;44.802;10.332;2023-12-28T10:15:51;102256.63;;;14.18;67.52
78121;BME280;67585;44.802;10.332;2023-12-28T10:18:20;102252.81;;;14.48;66.51
78121;BME280;67585;44.802;10.332;2023-12-28T10:20:52;102243.13;;;14.35;66.55
78121;BME280;67585;44.802;10.332;2023-12-28T10:23:19;102240.91;;;14.49;66.17
78121;BME280;67585;44.802;10.332;2023-12-28T10:25:46;102242.59;;;14.21;66.84
78121;BME280;67585;44.802;10.332;2023-12-28T10:28:11;102227.59;;;13.73;67.39
78121;BME280;67585;44.802;10.332;2023-12-28T10:30:40;102231.75;;;14.21;67.24
78121;BME280;67585;44.802;10.332;2023-12-28T10:33:06;102203.13;;;13.97;66.40
78121;BME280;67585;44.802;10.332;2023-12-28T10:35:32;102229.78;;;14.17;66.95
78121;BME280;67585;44.802;10.332;2023-12-28T10:37:59;102188.78;;;14.13;66.48
78121;BME280;67585;44.802;10.332;2023-12-28T10:40:25;102201.53;;;14.46;66.14
78121;BME280;67585;44.802;10.332;2023-12-28T10:42:54;102205.47;;;14.39;66.24
78121;BME280;67585;44.802;10.332;2023-12-28T10:45:25;102211.06;;;14.49;65.69
78121;BME280;67585;44.802;10.332;2023-12-28T10:48:07;102206.56;;;15.05;64.34
78121;BME280;67585;44.802;10.332;2023-12-28T10:51:12;102217.00;;;14.46;66.47
78121;BME280;67585;44.802;10.332;2023-12-28T10:53:37;102211.03;;;14.61;65.70
78121;BME280;67585;44.802;10.332;2023-12-28T10:56:25;102209.44;;;14.48;66.06
78121;BME280;67585;44.802;10.332;2023-12-28T10:59:02;102182.47;;;14.24;66.04
78121;BME280;67585;44.802;10.332;2023-12-28T11:01:32;102196.81;;;14.53;65.86
78121;BME280;67585;44.802;10.332;2023-12-28T11:06:51;102180.22;;;14.67;66.46
78121;BME280;67585;44.802;10.332;2023-12-28T11:09:18;102175.63;;;14.67;66.16
78121;BME280;67585;44.802;10.332;2023-12-28T11:11:46;102174.84;;;14.89;65.76
78121;BME280;67585;44.802;10.332;2023-12-28T11:14:12;102161.63;;;14.75;65.61
78121;BME280;67585;44.802;10.332;2023-12-28T11:16:38;102184.66;;;15.12;63.62
78121;BME280;67585;44.802;10.332;2023-12-28T11:19:05;102163.28;;;14.77;64.60
78121;BME280;67585;44.802;10.332;2023-12-28T11:21:32;102159.41;;;14.72;64.24
78121;BME280;67585;44.802;10.332;2023-12-28T11:23:58;102145.28;;;14.53;65.00
78121;BME280;67585;44.802;10.332;2023-12-28T11:26:24;102177.13;;;14.46;66.06
78121;BME280;67585;44.802;10.332;2023-12-28T11:28:50;102156.16;;;13.91;67.77
78121;BME280;67585;44.802;10.332;2023-12-28T11:31:26;102155.22;;;14.31;67.25
78121;BME280;67585;44.802;10.332;2023-12-28T11:33:51;102135.13;;;13.81;67.80
78121;BME280;67585;44.802;10.332;2023-12-28T11:36:26;102135.78;;;13.19;69.16
78121;BME280;67585;44.802;10.332;2023-12-28T11:39:03;102146.25;;;13.68;68.06
78121;BME280;67585;44.802;10.332;2023-12-28T11:41:31;102133.69;;;13.62;68.69
78121;BME280;67585;44.802;10.332;2023-12-28T11:44:04;102132.44;;;13.98;68.00
78121;BME280;67585;44.802;10.332;2023-12-28T11:46:32;102130.94;;;13.90;68.09
78121;BME280;67585;44.802;10.332;2023-12-28T11:49:07;102130.94;;;13.90;68.43
78121;BME280;67585;44.802;10.332;2023-12-28T11:51:36;102126.38;;;13.91;68.28
78121;BME280;67585;44.802;10.332;2023-12-28T11:54:03;102115.19;;;13.87;68.33
78121;BME280;67585;44.802;10.332;2023-12-28T11:56:29;102113.88;;;13.90;68.04
78121;BME280;67585;44.802;10.332;2023-12-28T11:58:55;102120.19;;;13.79;68.56
78121;BME280;67585;44.802;10.332;2023-12-28T12:01:20;102090.81;;;13.59;68.86
78121;BME280;67585;44.802;10.332;2023-12-28T12:03:46;102123.81;;;13.84;68.35
78121;BME280;67585;44.802;10.332;2023-12-28T12:06:13;102121.72;;;13.75;68.90
78121;BME280;67585;44.802;10.332;2023-12-28T12:08:38;102125.59;;;13.79;69.16
78121;BME280;67585;44.802;10.332;2023-12-28T12:11:07;102133.75;;;13.38;69.68
78121;BME280;67585;44.802;10.332;2023-12-28T12:13:32;102113.16;;;13.37;69.60
78121;BME280;67585;44.802;10.332;2023-12-28T12:15:58;102100.22;;;13.68;68.86
78121;BME280;67585;44.802;10.332;2023-12-28T12:18:25;102111.94;;;13.74;69.26
78121;BME280;67585;44.802;10.332;2023-12-28T12:20:50;102109.53;;;14.06;68.12
78121;BME280;67585;44.802;10.332;2023-12-28T12:23:16;102108.91;;;14.16;67.72
78121;BME280;67585;44.802;10.332;2023-12-28T12:25:41;102105.00;;;13.49;69.61
78121;BME280;67585;44.802;10.332;2023-12-28T12:28:07;102105.53;;;13.63;69.24
78121;BME280;67585;44.802;10.332;2023-12-28T12:30:34;102086.66;;;13.11;70.93
78121;BME280;67585;44.802;10.332;2023-12-28T12:32:59;102089.78;;;13.31;70.31
78121;BME280;67585;44.802;10.332;2023-12-28T12:35:25;102068.59;;;13.57;69.57
78121;BME280;67585;44.802;10.332;2023-12-28T12:37:50;102101.16;;;13.45;70.62
78121;BME280;67585;44.802;10.332;2023-12-28T12:40:17;102086.94;;;13.26;70.71
78121;BME280;67585;44.802;10.332;2023-12-28T12:42:52;102095.09;;;13.14;71.37
78121;BME280;67585;44.802;10.332;2023-12-28T12:45:18;102086.72;;;13.28;71.24